Time;durP1;ratioP1;P1;durP2;ratioP2;P2;SDS_P1;SDS_P2;PMS_P1;PMS_P2;Temp;Humidity;BMP_temperature;BMP_pressure;BME280_temperature;BME280_humidity;BME280_pressure;Samples;Min_cycle;Max_cycle;Signal;HPM_P1;HPM_P2
2023/05/04 00:01:40;;;;;;;;;;;7.60;99.90;;;;;;5174658;27;19997;-42
2023/05/04 00:04:06;;;;;;;;;;;7.60;99.90;;;;;;5177988;27;19906;-42
2023/05/04 00:06:31;;;;;;;;;;;7.60;99.90;;;;;;5177598;27;20258;-41
2023/05/04 00:08:57;;;;;;;;;;;7.60;99.90;;;;;;5178351;27;20378;-40
2023/05/04 00:11:22;;;;;;;;;;;7.60;99.90;;;;;;5178429;27;19907;-41
2023/05/04 00:13:48;;;;;;;;;;;7.60;99.90;;;;;;5177501;27;19958;-41
2023/05/04 00:16:13;;;;;;;;;;;7.60;99.90;;;;;;5178367;27;19913;-42
2023/05/04 00:18:39;;;;;;;;;;;7.50;99.90;;;;;;5178130;27;19917;-41
2023/05/04 00:21:05;;;;;;;;;;;7.50;99.90;;;;;;5176918;27;19914;-42
2023/05/04 00:23:30;;;;;;;;;;;7.50;99.90;;;;;;5178064;27;19906;-42
2023/05/04 00:25:59;;;;;;;;;;;7.40;99.90;;;;;;5178110;27;19959;-42
2023/05/04 00:28:24;;;;;;;;;;;7.40;99.90;;;;;;5176819;27;19919;-41
2023/05/04 00:30:53;;;;;;;;;;;7.40;99.90;;;;;;5177958;27;19914;-42
2023/05/04 00:33:19;;;;;;;;;;;7.40;99.90;;;;;;5176960;27;20002;-41
2023/05/04 00:35:44;;;;;;;;;;;7.30;99.90;;;;;;5177312;27;20351;-41
2023/05/04 00:38:10;;;;;;;;;;;7.30;99.90;;;;;;5177754;27;19910;-41
2023/05/04 00:40:35;;;;;;;;;;;7.30;99.90;;;;;;5177008;27;19965;-41
2023/05/04 00:43:01;;;;;;;;;;;7.30;99.90;;;;;;5177718;27;20357;-41
2023/05/04 00:45:26;;;;;;;;;;;7.30;99.90;;;;;;5177303;27;19917;-42
2023/05/04 00:47:52;;;;;;;;;;;7.30;99.90;;;;;;5176880;27;19906;-41
2023/05/04 00:50:18;;;;;;;;;;;7.30;99.90;;;;;;5177751;27;19906;-40
2023/05/04 00:52:44;;;;;;;;;;;7.30;99.90;;;;;;5177452;27;19907;-40
2023/05/04 00:55:10;;;;;;;;;;;7.30;99.90;;;;;;5176766;27;20013;-41
2023/05/04 00:57:35;;;;;;;;;;;7.30;99.90;;;;;;5177086;27;19994;-42
2023/05/04 01:00:01;;;;;;;;;;;7.20;99.90;;;;;;5177271;27;19915;-41
2023/05/04 01:02:27;;;;;;;;;;;7.20;99.90;;;;;;5176651;27;19911;-42
2023/05/04 01:04:53;;;;;;;;;;;7.20;99.90;;;;;;5177312;27;19975;-41
2023/05/04 01:07:31;;;;;;;;;;;7.20;99.90;;;;;;5177281;27;19907;-41
2023/05/04 01:09:57;;;;;;;;;;;7.20;99.90;;;;;;5176890;27;19906;-41
2023/05/04 01:12:34;;;;;;;;;;;7.20;99.90;;;;;;5177130;27;19913;-42
2023/05/04 01:15:00;;;;;;;;;;;7.10;99.90;;;;;;5176298;27;19907;-44
2023/05/04 01:17:26;;;;;;;;;;;7.20;99.90;;;;;;5176348;27;19907;-41
2023/05/04 01:19:52;;;;;;;;;;;7.10;99.90;;;;;;5176953;27;19926;-41
2023/05/04 01:22:18;;;;;;;;;;;7.10;99.90;;;;;;5177022;27;19913;-42
2023/05/04 01:24:44;;;;;;;;;;;7.10;99.90;;;;;;5176174;27;19907;-40
2023/05/04 01:27:36;;;;;;;;;;;7.10;99.90;;;;;;5176636;27;19907;-41
2023/05/04 01:30:07;;;;;;;;;;;7.10;99.90;;;;;;5135881;27;19942;-41
2023/05/04 01:32:34;;;;;;;;;;;7.10;99.90;;;;;;5176476;27;19926;-41
2023/05/04 01:35:00;;;;;;;;;;;7.10;99.90;;;;;;5176776;27;19914;-43
2023/05/04 01:37:25;;;;;;;;;;;7.00;99.90;;;;;;5175772;27;19907;-41
2023/05/04 01:39:51;;;;;;;;;;;7.00;99.90;;;;;;5176505;27;19915;-41
2023/05/04 01:42:16;;;;;;;;;;;7.00;99.90;;;;;;5176411;27;19911;-43
2023/05/04 01:44:42;;;;;;;;;;;7.00;99.90;;;;;;5175638;27;20449;-42
2023/05/04 01:47:07;;;;;;;;;;;7.00;99.90;;;;;;5176573;27;19921;-41
2023/05/04 01:49:32;;;;;;;;;;;7.00;99.90;;;;;;5176438;27;20254;-41
2023/05/04 01:51:58;;;;;;;;;;;7.00;99.90;;;;;;5175616;27;19950;-43
2023/05/04 01:54:23;;;;;;;;;;;7.00;99.90;;;;;;5176366;27;19914;-40
2023/05/04 01:56:49;;;;;;;;;;;7.00;99.90;;;;;;5176260;27;19959;-41
2023/05/04 01:59:14;;;;;;;;;;;7.00;99.90;;;;;;5174787;27;19923;-42
2023/05/04 02:01:40;;;;;;;;;;;7.00;99.90;;;;;;5175815;27;19911;-42
2023/05/04 02:04:06;;;;;;;;;;;7.00;99.90;;;;;;5176161;27;19951;-42
2023/05/04 02:06:31;;;;;;;;;;;7.00;99.90;;;;;;5175268;27;19906;-41
2023/05/04 02:08:57;;;;;;;;;;;7.00;99.90;;;;;;5176063;27;19934;-43
2023/05/04 02:11:22;;;;;;;;;;;7.00;99.90;;;;;;5175645;27;19989;-41
2023/05/04 02:13:48;;;;;;;;;;;7.00;99.90;;;;;;5175090;27;19911;-41
2023/05/04 02:16:13;;;;;;;;;;;7.00;99.90;;;;;;5175871;27;19911;-40
2023/05/04 02:18:39;;;;;;;;;;;7.00;99.90;;;;;;5175777;27;19915;-43
2023/05/04 02:21:05;;;;;;;;;;;7.00;99.90;;;;;;5174611;27;20001;-43
2023/05/04 02:23:30;;;;;;;;;;;7.00;99.90;;;;;;5175793;27;19915;-43
2023/05/04 02:25:56;;;;;;;;;;;7.00;99.90;;;;;;5174853;27;19907;-42
2023/05/04 02:28:21;;;;;;;;;;;7.00;99.90;;;;;;5175084;27;19911;-41
2023/05/04 02:30:47;;;;;;;;;;;7.00;99.90;;;;;;5175538;27;19910;-41
2023/05/04 02:33:12;;;;;;;;;;;7.00;99.90;;;;;;5174692;27;19975;-42
2023/05/04 02:35:38;;;;;;;;;;;7.00;99.90;;;;;;5175577;27;19914;-41
2023/05/04 02:38:03;;;;;;;;;;;7.00;99.90;;;;;;5175113;27;20010;-42
2023/05/04 02:40:29;;;;;;;;;;;7.00;99.90;;;;;;5174767;27;20037;-41
2023/05/04 02:42:54;;;;;;;;;;;7.00;99.90;;;;;;5175507;27;19918;-41
2023/05/04 02:45:20;;;;;;;;;;;7.00;99.90;;;;;;5175062;27;20332;-41
2023/05/04 02:47:46;;;;;;;;;;;6.90;99.90;;;;;;5174508;27;19951;-43
2023/05/04 02:50:11;;;;;;;;;;;6.90;99.90;;;;;;5175424;27;20298;-41
2023/05/04 02:52:36;;;;;;;;;;;6.90;99.90;;;;;;5175302;27;19932;-43
2023/05/04 02:55:02;;;;;;;;;;;6.90;99.90;;;;;;5174594;27;19907;-42
2023/05/04 02:57:27;;;;;;;;;;;6.90;99.90;;;;;;5175437;27;19911;-42
2023/05/04 02:59:53;;;;;;;;;;;6.90;99.90;;;;;;5175155;27;19921;-42
2023/05/04 03:02:18;;;;;;;;;;;6.80;99.90;;;;;;5174495;27;20519;-42
2023/05/04 03:04:44;;;;;;;;;;;6.80;99.90;;;;;;5175196;27;19907;-42
2023/05/04 03:07:10;;;;;;;;;;;6.80;99.90;;;;;;5175304;27;19907;-43
2023/05/04 03:09:36;;;;;;;;;;;6.80;99.90;;;;;;5174548;27;19918;-42
2023/05/04 03:12:02;;;;;;;;;;;6.80;99.90;;;;;;5175315;27;19907;-41
2023/05/04 03:14:27;;;;;;;;;;;6.90;99.90;;;;;;5175086;27;20013;-42
2023/05/04 03:16:53;;;;;;;;;;;6.80;99.90;;;;;;5173921;27;20411;-42
2023/05/04 03:19:20;;;;;;;;;;;6.90;99.90;;;;;;5174918;27;19941;-41
2023/05/04 03:21:46;;;;;;;;;;;6.90;99.90;;;;;;5175022;27;19946;-41
2023/05/04 03:24:11;;;;;;;;;;;6.90;99.90;;;;;;5174368;27;19949;-42
2023/05/04 03:26:37;;;;;;;;;;;6.90;99.90;;;;;;5175065;27;20005;-42
2023/05/04 03:29:03;;;;;;;;;;;6.80;99.90;;;;;;5175110;27;20345;-42
2023/05/04 03:31:28;;;;;;;;;;;6.90;99.90;;;;;;5173901;27;19929;-41
2023/05/04 03:33:54;;;;;;;;;;;6.90;99.90;;;;;;5156294;27;19907;-41
2023/05/04 03:36:20;;;;;;;;;;;6.80;99.90;;;;;;5174191;27;19907;-42
2023/05/04 03:38:45;;;;;;;;;;;6.80;99.90;;;;;;5177534;27;19918;-42
2023/05/04 03:41:11;;;;;;;;;;;6.90;99.90;;;;;;5179096;27;19906;-42
2023/05/04 03:43:39;;;;;;;;;;;6.90;99.90;;;;;;5177374;27;21554;-42
2023/05/04 03:46:04;;;;;;;;;;;6.90;99.90;;;;;;5178269;27;19957;-41
2023/05/04 03:48:30;;;;;;;;;;;6.90;99.90;;;;;;5178809;27;20001;-42
2023/05/04 03:50:55;;;;;;;;;;;6.90;99.90;;;;;;5177966;27;19951;-41
2023/05/04 03:53:21;;;;;;;;;;;6.90;99.90;;;;;;5178812;27;19929;-43
2023/05/04 03:55:46;;;;;;;;;;;6.90;99.90;;;;;;5178639;27;19907;-42
2023/05/04 03:58:12;;;;;;;;;;;6.90;99.90;;;;;;5177746;27;20001;-42
2023/05/04 04:00:37;;;;;;;;;;;6.90;99.90;;;;;;5178540;27;19907;-42
2023/05/04 04:03:03;;;;;;;;;;;6.90;99.90;;;;;;5178278;27;19911;-42
2023/05/04 04:05:28;;;;;;;;;;;6.90;99.90;;;;;;5177746;27;19914;-41
2023/05/04 04:07:54;;;;;;;;;;;6.90;99.90;;;;;;5178817;27;19959;-42
2023/05/04 04:10:19;;;;;;;;;;;7.00;99.90;;;;;;5178538;27;19907;-41
2023/05/04 04:12:45;;;;;;;;;;;6.90;99.90;;;;;;5177485;27;19918;-42
2023/05/04 04:15:10;;;;;;;;;;;6.90;99.90;;;;;;5164568;27;20322;-43
2023/05/04 04:17:36;;;;;;;;;;;6.90;99.90;;;;;;5177423;27;20235;-42
2023/05/04 04:20:01;;;;;;;;;;;6.90;99.90;;;;;;5175970;27;19925;-42
2023/05/04 04:22:27;;;;;;;;;;;6.90;99.90;;;;;;5176652;27;20393;-41
2023/05/04 04:24:52;;;;;;;;;;;6.90;99.90;;;;;;5176161;27;19907;-43
2023/05/04 04:27:18;;;;;;;;;;;6.90;99.90;;;;;;5172873;27;20013;-43
2023/05/04 04:29:43;;;;;;;;;;;6.90;99.90;;;;;;5176413;27;19911;-42
2023/05/04 04:32:09;;;;;;;;;;;6.90;99.90;;;;;;5175770;27;19923;-42
2023/05/04 04:34:34;;;;;;;;;;;6.90;99.90;;;;;;5175650;27;20292;-41
2023/05/04 04:37:00;;;;;;;;;;;6.90;99.90;;;;;;5176270;27;19926;-42
2023/05/04 04:39:26;;;;;;;;;;;7.00;99.90;;;;;;5175866;27;19914;-43
2023/05/04 04:41:51;;;;;;;;;;;7.00;99.90;;;;;;5175940;27;19911;-42
2023/05/04 04:44:17;;;;;;;;;;;6.90;99.90;;;;;;5176293;27;19911;-41
2023/05/04 04:46:44;;;;;;;;;;;7.00;99.90;;;;;;5174819;27;20330;-42
2023/05/04 04:49:11;;;;;;;;;;;7.00;99.90;;;;;;5174802;27;20366;-42
2023/05/04 04:51:36;;;;;;;;;;;7.00;99.90;;;;;;5175951;27;20005;-42
2023/05/04 04:54:01;;;;;;;;;;;7.00;99.90;;;;;;5175043;27;20002;-41
2023/05/04 04:56:27;;;;;;;;;;;7.00;99.90;;;;;;5175876;27;19939;-43
2023/05/04 04:58:52;;;;;;;;;;;7.00;99.90;;;;;;5176004;27;19921;-41
2023/05/04 05:01:18;;;;;;;;;;;7.00;99.90;;;;;;5175328;27;19914;-42
2023/05/04 05:03:44;;;;;;;;;;;7.00;99.90;;;;;;5175720;27;19906;-43
2023/05/04 05:06:10;;;;;;;;;;;7.10;99.90;;;;;;5175748;27;19950;-42
2023/05/04 05:08:36;;;;;;;;;;;7.10;99.90;;;;;;5174990;27;20348;-43
2023/05/04 05:11:01;;;;;;;;;;;7.10;99.90;;;;;;5175773;27;19953;-41
2023/05/04 05:13:27;;;;;;;;;;;7.20;99.90;;;;;;5175477;27;20281;-42
2023/05/04 05:15:52;;;;;;;;;;;7.20;99.90;;;;;;5174773;27;19914;-42
2023/05/04 05:18:18;;;;;;;;;;;7.30;99.90;;;;;;5175506;27;19914;-42
2023/05/04 05:20:43;;;;;;;;;;;7.30;99.90;;;;;;5175474;27;19914;-44
2023/05/04 05:23:09;;;;;;;;;;;7.40;99.90;;;;;;5174700;27;20352;-43
2023/05/04 05:25:35;;;;;;;;;;;7.40;99.90;;;;;;5176334;27;19918;-42
2023/05/04 05:28:01;;;;;;;;;;;7.40;99.90;;;;;;5176441;27;19906;-41
2023/05/04 05:30:27;;;;;;;;;;;7.50;99.90;;;;;;5175919;27;20380;-42
2023/05/04 05:32:52;;;;;;;;;;;7.50;99.90;;;;;;5176566;27;19962;-43
2023/05/04 05:35:18;;;;;;;;;;;7.60;99.90;;;;;;5176771;27;19914;-43
2023/05/04 05:37:44;;;;;;;;;;;7.60;99.90;;;;;;5175836;27;19959;-42
2023/05/04 05:40:09;;;;;;;;;;;7.60;99.90;;;;;;5176572;27;19914;-41
2023/05/04 05:42:35;;;;;;;;;;;7.70;99.90;;;;;;5176534;27;20392;-42
2023/05/04 05:45:03;;;;;;;;;;;7.70;99.90;;;;;;5175811;27;19914;-42
2023/05/04 05:47:28;;;;;;;;;;;7.70;99.90;;;;;;5167832;27;19938;-41
2023/05/04 05:49:54;;;;;;;;;;;7.80;99.90;;;;;;5163267;27;20309;-42
2023/05/04 05:52:19;;;;;;;;;;;7.80;99.90;;;;;;5175078;27;19907;-41
2023/05/04 05:54:45;;;;;;;;;;;7.90;99.90;;;;;;5175504;27;19997;-41
2023/05/04 05:57:11;;;;;;;;;;;7.90;99.90;;;;;;5174146;27;19914;-44
2023/05/04 05:59:36;;;;;;;;;;;7.90;99.90;;;;;;5174296;27;20312;-42
2023/05/04 06:02:01;;;;;;;;;;;7.90;99.90;;;;;;5167831;27;19914;-43
2023/05/04 06:04:27;;;;;;;;;;;8.00;99.90;;;;;;5165807;27;19915;-42
2023/05/04 06:06:52;;;;;;;;;;;8.00;99.90;;;;;;5155453;27;19918;-42
2023/05/04 06:09:18;;;;;;;;;;;8.00;99.90;;;;;;5155265;27;19960;-42
2023/05/04 06:11:43;;;;;;;;;;;8.10;99.90;;;;;;5154363;27;19913;-41
2023/05/04 06:14:09;;;;;;;;;;;8.10;99.90;;;;;;5164954;27;20003;-41
2023/05/04 06:16:34;;;;;;;;;;;8.20;99.90;;;;;;5173664;27;20379;-42
2023/05/04 06:19:00;;;;;;;;;;;8.20;99.90;;;;;;5162880;27;19958;-41
2023/05/04 06:21:25;;;;;;;;;;;8.30;99.90;;;;;;5154931;27;19911;-42
2023/05/04 06:23:51;;;;;;;;;;;8.40;99.90;;;;;;5165349;27;19966;-42
2023/05/04 06:26:18;;;;;;;;;;;8.40;99.90;;;;;;5174965;27;19914;-41
2023/05/04 06:28:44;;;;;;;;;;;8.50;99.90;;;;;;5175731;27;19907;-42
2023/05/04 06:31:09;;;;;;;;;;;8.50;99.90;;;;;;5169069;27;20269;-42
2023/05/04 06:33:34;;;;;;;;;;;8.60;99.90;;;;;;5166777;27;20013;-41
2023/05/04 06:36:00;;;;;;;;;;;8.60;99.90;;;;;;5174050;27;19911;-41
2023/05/04 06:38:26;;;;;;;;;;;8.70;99.90;;;;;;5166234;27;19922;-43
2023/05/04 06:40:51;;;;;;;;;;;8.70;99.90;;;;;;5174800;27;19913;-43
2023/05/04 06:43:17;;;;;;;;;;;8.80;99.90;;;;;;5175396;27;19929;-42
2023/05/04 06:45:43;;;;;;;;;;;8.90;99.90;;;;;;5155418;27;20293;-41
2023/05/04 06:48:08;;;;;;;;;;;9.00;99.90;;;;;;5174640;27;19918;-41
2023/05/04 06:50:35;;;;;;;;;;;9.00;99.90;;;;;;5168788;27;19911;-41
2023/05/04 06:53:03;;;;;;;;;;;9.10;99.90;;;;;;5154492;27;20361;-41
2023/05/04 06:55:29;;;;;;;;;;;9.30;99.90;;;;;;5160414;27;20039;-41
2023/05/04 06:57:54;;;;;;;;;;;9.30;99.90;;;;;;5165896;27;20391;-42
2023/05/04 07:00:20;;;;;;;;;;;9.40;99.90;;;;;;5171323;27;19919;-41
2023/05/04 07:02:48;;;;;;;;;;;9.50;99.90;;;;;;5174168;27;19914;-41
2023/05/04 07:05:14;;;;;;;;;;;9.60;99.90;;;;;;5174967;27;20365;-41
2023/05/04 07:07:39;;;;;;;;;;;9.70;99.90;;;;;;5172883;27;19924;-42
2023/05/04 07:10:05;;;;;;;;;;;9.70;99.90;;;;;;5175319;27;20321;-42
2023/05/04 07:12:31;;;;;;;;;;;9.80;99.90;;;;;;5175639;27;20001;-43
2023/05/04 07:14:56;;;;;;;;;;;9.90;99.90;;;;;;5178883;27;19990;-42
2023/05/04 07:17:24;;;;;;;;;;;10.00;99.90;;;;;;5179735;27;20131;-42
2023/05/04 07:19:51;;;;;;;;;;;10.10;99.90;;;;;;5177472;27;20330;-42
2023/05/04 07:22:17;;;;;;;;;;;10.10;99.90;;;;;;5178471;27;19911;-41
2023/05/04 07:24:42;;;;;;;;;;;10.20;99.90;;;;;;5178531;27;19915;-41
2023/05/04 07:27:09;;;;;;;;;;;10.30;99.90;;;;;;5178978;27;20276;-41
2023/05/04 07:29:34;;;;;;;;;;;10.40;99.90;;;;;;5177512;27;19971;-42
2023/05/04 07:32:00;;;;;;;;;;;10.50;99.90;;;;;;5159905;27;20274;-41
2023/05/04 07:34:25;;;;;;;;;;;10.50;99.90;;;;;;5164143;27;19918;-42
2023/05/04 07:36:51;;;;;;;;;;;10.60;99.90;;;;;;5164876;27;20447;-40
2023/05/04 07:39:16;;;;;;;;;;;10.60;99.90;;;;;;5167022;27;19927;-42
2023/05/04 07:41:42;;;;;;;;;;;10.70;99.90;;;;;;5171228;27;20013;-40
2023/05/04 07:44:10;;;;;;;;;;;10.70;99.90;;;;;;5171776;27;19954;-42
2023/05/04 07:46:35;;;;;;;;;;;10.80;99.90;;;;;;5166832;27;20002;-42
2023/05/04 07:49:01;;;;;;;;;;;10.90;99.90;;;;;;5167087;27;20386;-42
2023/05/04 07:51:27;;;;;;;;;;;10.90;99.90;;;;;;5157432;27;19911;-41
2023/05/04 07:53:52;;;;;;;;;;;11.00;99.90;;;;;;5172774;27;19914;-42
2023/05/04 07:56:18;;;;;;;;;;;11.10;99.90;;;;;;5178409;27;19910;-42
2023/05/04 07:58:43;;;;;;;;;;;11.10;99.90;;;;;;5175903;27;20281;-41
2023/05/04 08:01:09;;;;;;;;;;;11.20;99.90;;;;;;5166212;27;19965;-40
2023/05/04 08:03:35;;;;;;;;;;;11.30;99.90;;;;;;5168634;27;19934;-41
2023/05/04 08:06:00;;;;;;;;;;;11.30;99.90;;;;;;5147907;27;19915;-41
2023/05/04 08:08:26;;;;;;;;;;;11.40;99.90;;;;;;5157529;27;19911;-42
2023/05/04 08:10:52;;;;;;;;;;;11.60;99.90;;;;;;5162773;27;19910;-42
2023/05/04 08:13:18;;;;;;;;;;;11.60;99.90;;;;;;5177112;27;19911;-40
2023/05/04 08:15:43;;;;;;;;;;;11.70;99.90;;;;;;5178335;27;20273;-41
2023/05/04 08:18:09;;;;;;;;;;;11.80;99.90;;;;;;5174758;27;19915;-41
2023/05/04 08:20:35;;;;;;;;;;;11.90;99.90;;;;;;5170447;27;19911;-40
2023/05/04 08:23:02;;;;;;;;;;;12.00;99.90;;;;;;5168689;27;19911;-40
2023/05/04 08:25:28;;;;;;;;;;;12.10;99.90;;;;;;5169609;27;19942;-40
2023/05/04 08:27:53;;;;;;;;;;;12.20;99.90;;;;;;5171466;27;19985;-40
2023/05/04 08:30:19;;;;;;;;;;;12.40;99.90;;;;;;5172491;27;19962;-40
2023/05/04 08:32:44;;;;;;;;;;;12.50;99.90;;;;;;5170331;27;19978;-40
2023/05/04 08:35:10;;;;;;;;;;;12.60;99.90;;;;;;5176998;27;20246;-41
2023/05/04 08:37:36;;;;;;;;;;;12.70;99.90;;;;;;5174329;27;19953;-41
2023/05/04 08:40:01;;;;;;;;;;;12.80;99.90;;;;;;5162003;27;20261;-40
2023/05/04 08:42:28;;;;;;;;;;;12.90;99.90;;;;;;5173948;27;19914;-40
2023/05/04 08:44:54;;;;;;;;;;;13.00;99.90;;;;;;5164963;27;20495;-41
2023/05/04 08:47:20;;;;;;;;;;;13.00;99.90;;;;;;5155451;27;19919;-41
2023/05/04 08:49:45;;;;;;;;;;;13.10;99.90;;;;;;5155423;27;19958;-41
2023/05/04 08:52:12;;;;;;;;;;;13.20;99.90;;;;;;5156835;27;19968;-40
2023/05/04 08:54:38;;;;;;;;;;;13.30;99.90;;;;;;5162759;27;19915;-43
2023/05/04 08:57:04;;;;;;;;;;;13.40;99.90;;;;;;5167375;27;19929;-41
2023/05/04 08:59:30;;;;;;;;;;;13.50;99.90;;;;;;5165625;27;19919;-40
2023/05/04 09:01:57;;;;;;;;;;;13.60;99.90;;;;;;5155898;27;19914;-40
2023/05/04 09:04:22;;;;;;;;;;;13.70;99.90;;;;;;5170506;27;19911;-40
2023/05/04 09:06:48;;;;;;;;;;;13.80;99.90;;;;;;5176559;27;19914;-40
2023/05/04 09:09:13;;;;;;;;;;;13.80;99.90;;;;;;5177311;27;19907;-40
2023/05/04 09:11:39;;;;;;;;;;;13.90;99.90;;;;;;5161895;27;19907;-41
2023/05/04 09:14:05;;;;;;;;;;;13.90;99.90;;;;;;5177240;27;19911;-40
2023/05/04 09:16:35;;;;;;;;;;;14.00;99.90;;;;;;5177857;27;19913;-41
2023/05/04 09:19:01;;;;;;;;;;;14.10;99.90;;;;;;5177815;27;19922;-41
2023/05/04 09:21:27;;;;;;;;;;;14.10;99.90;;;;;;5177114;27;19967;-41
2023/05/04 09:23:52;;;;;;;;;;;14.20;99.90;;;;;;5177939;27;19910;-41
2023/05/04 09:26:31;;;;;;;;;;;14.30;99.90;;;;;;5176910;27;20000;-42
2023/05/04 09:29:08;;;;;;;;;;;14.50;99.90;;;;;;5169573;27;19911;-41
2023/05/04 09:31:43;;;;;;;;;;;14.70;99.90;;;;;;5175866;27;20441;-41
2023/05/04 09:34:08;;;;;;;;;;;14.90;99.90;;;;;;5176437;27;20361;-40
2023/05/04 09:36:34;;;;;;;;;;;15.00;99.90;;;;;;5174883;27;19941;-41
2023/05/04 09:39:12;;;;;;;;;;;15.20;99.90;;;;;;5175908;27;19965;-42
2023/05/04 09:41:37;;;;;;;;;;;15.20;99.90;;;;;;5176546;27;19914;-41
2023/05/04 09:44:03;;;;;;;;;;;15.30;99.90;;;;;;5175423;27;19911;-40
2023/05/04 09:46:29;;;;;;;;;;;15.40;99.90;;;;;;5176239;27;19907;-41
2023/05/04 09:48:59;;;;;;;;;;;15.40;99.90;;;;;;5176022;27;19917;-41
2023/05/04 09:51:26;;;;;;;;;;;15.40;99.90;;;;;;5175761;27;20357;-41
2023/05/04 09:53:52;;;;;;;;;;;15.40;99.90;;;;;;5167040;27;19963;-42
2023/05/04 09:56:27;;;;;;;;;;;15.60;99.90;;;;;;5158499;27;20002;-41
2023/05/04 09:58:56;;;;;;;;;;;15.60;99.90;;;;;;5163578;27;19973;-42
2023/05/04 10:01:22;;;;;;;;;;;15.70;99.90;;;;;;5153680;27;19929;-42
2023/05/04 10:03:47;;;;;;;;;;;15.80;99.90;;;;;;5158072;27;20341;-40
2023/05/04 10:06:13;;;;;;;;;;;15.90;99.90;;;;;;5174747;27;20407;-43
2023/05/04 10:08:40;;;;;;;;;;;15.90;99.90;;;;;;5173436;27;19910;-41
2023/05/04 10:11:06;;;;;;;;;;;16.10;99.90;;;;;;5174380;27;20352;-40
2023/05/04 10:13:32;;;;;;;;;;;16.10;99.90;;;;;;5175695;27;19906;-42
2023/05/04 10:16:17;;;;;;;;;;;16.20;99.90;;;;;;5175520;27;19930;-40
2023/05/04 10:19:06;;;;;;;;;;;16.40;99.90;;;;;;5171056;27;19923;-42
2023/05/04 10:21:42;;;;;;;;;;;16.60;99.90;;;;;;5157729;27;20369;-41
2023/05/04 10:24:27;;;;;;;;;;;16.60;99.90;;;;;;5155300;27;19952;-41
2023/05/04 10:27:01;;;;;;;;;;;16.80;99.90;;;;;;5155793;27;19907;-40
2023/05/04 10:29:28;;;;;;;;;;;17.00;99.90;;;;;;5155399;27;19911;-40
2023/05/04 10:31:53;;;;;;;;;;;17.00;99.90;;;;;;5154749;27;20359;-45
2023/05/04 10:34:26;;;;;;;;;;;17.10;99.90;;;;;;5155511;27;19960;-42
2023/05/04 10:36:52;;;;;;;;;;;17.10;99.90;;;;;;5164941;27;19917;-40
2023/05/04 10:39:22;;;;;;;;;;;17.10;99.90;;;;;;5175766;27;19915;-41
2023/05/04 10:42:02;;;;;;;;;;;17.10;99.90;;;;;;5176220;27;19998;-41
2023/05/04 10:44:31;;;;;;;;;;;17.20;99.90;;;;;;5175817;27;20355;-41
2023/05/04 10:47:04;;;;;;;;;;;17.20;99.90;;;;;;5175323;27;20361;-43
2023/05/04 10:49:30;;;;;;;;;;;17.20;99.80;;;;;;5175530;27;19954;-43
2023/05/04 10:52:06;;;;;;;;;;;17.30;97.90;;;;;;5175761;27;19911;-40
2023/05/04 10:54:32;;;;;;;;;;;17.30;98.50;;;;;;5175332;27;19998;-44
2023/05/04 10:57:09;;;;;;;;;;;17.30;98.80;;;;;;5175987;27;19946;-40
2023/05/04 10:59:34;;;;;;;;;;;17.40;99.40;;;;;;5175286;27;19918;-41
2023/05/04 11:02:01;;;;;;;;;;;17.50;98.60;;;;;;5175531;27;20246;-41
2023/05/04 11:04:26;;;;;;;;;;;17.60;98.90;;;;;;5175320;27;19911;-41
2023/05/04 11:06:59;;;;;;;;;;;17.60;98.70;;;;;;5175152;27;19906;-42
2023/05/04 11:09:27;;;;;;;;;;;17.60;97.90;;;;;;5175652;27;19942;-42
2023/05/04 11:11:54;;;;;;;;;;;17.70;99.00;;;;;;5174942;27;19950;-41
2023/05/04 11:14:27;;;;;;;;;;;17.80;99.20;;;;;;5175196;27;20330;-41
2023/05/04 11:17:13;;;;;;;;;;;17.90;98.10;;;;;;5156175;27;20356;-40
2023/05/04 11:19:48;;;;;;;;;;;18.00;98.70;;;;;;5172542;27;20490;-40
2023/05/04 11:22:15;;;;;;;;;;;18.10;98.20;;;;;;5174046;27;20009;-41
2023/05/04 11:24:44;;;;;;;;;;;18.30;99.90;;;;;;5161468;27;19915;-42
2023/05/04 11:27:22;;;;;;;;;;;18.50;98.10;;;;;;5162438;27;20431;-41
2023/05/04 11:30:01;;;;;;;;;;;18.60;96.80;;;;;;5169952;27;19910;-41
2023/05/04 11:32:33;;;;;;;;;;;18.80;98.30;;;;;;5162254;27;19923;-42
2023/05/04 11:34:59;;;;;;;;;;;18.90;93.90;;;;;;5174058;27;19929;-40
2023/05/04 11:37:27;;;;;;;;;;;18.90;94.00;;;;;;5175274;27;19906;-42
2023/05/04 11:39:53;;;;;;;;;;;18.80;93.80;;;;;;5175665;27;19962;-41
2023/05/04 11:42:19;;;;;;;;;;;18.80;93.10;;;;;;5161289;27;19988;-42
2023/05/04 11:44:45;;;;;;;;;;;18.70;92.00;;;;;;5174249;27;20552;-41
2023/05/04 11:47:11;;;;;;;;;;;18.80;91.20;;;;;;5173893;27;19918;-41
2023/05/04 11:49:37;;;;;;;;;;;18.80;94.20;;;;;;5172569;27;19998;-41
2023/05/04 11:52:09;;;;;;;;;;;18.90;94.10;;;;;;5174373;27;20020;-41
2023/05/04 11:54:35;;;;;;;;;;;19.10;95.20;;;;;;5174547;27;19907;-41
2023/05/04 11:57:02;;;;;;;;;;;19.20;88.90;;;;;;5174408;27;19911;-41
2023/05/04 11:59:27;;;;;;;;;;;19.30;91.30;;;;;;5177240;27;19915;-41
2023/05/04 12:01:54;;;;;;;;;;;19.50;87.10;;;;;;5179188;27;19914;-41
2023/05/04 12:04:20;;;;;;;;;;;19.60;90.10;;;;;;5162574;27;19912;-41
2023/05/04 12:06:45;;;;;;;;;;;19.70;92.60;;;;;;5157717;27;19922;-41
2023/05/04 12:09:11;;;;;;;;;;;19.80;84.80;;;;;;5164716;27;20307;-41
2023/05/04 12:11:37;;;;;;;;;;;20.00;91.70;;;;;;5165676;27;19915;-41
2023/05/04 12:14:08;;;;;;;;;;;20.20;87.00;;;;;;5161117;27;20300;-41
2023/05/04 12:16:34;;;;;;;;;;;20.20;83.30;;;;;;5158864;27;19918;-40
2023/05/04 12:19:03;;;;;;;;;;;20.20;76.90;;;;;;5170789;27;19975;-42
2023/05/04 12:21:29;;;;;;;;;;;20.30;71.30;;;;;;5164077;27;19916;-41
2023/05/04 12:23:55;;;;;;;;;;;20.40;80.40;;;;;;5164106;27;19911;-41
2023/05/04 12:26:20;;;;;;;;;;;20.40;71.60;;;;;;5162838;27;19911;-41
2023/05/04 12:28:46;;;;;;;;;;;20.50;83.30;;;;;;5159838;27;19937;-42
2023/05/04 12:31:11;;;;;;;;;;;20.70;85.10;;;;;;5162288;27;20385;-41
2023/05/04 12:33:37;;;;;;;;;;;20.90;83.90;;;;;;5161073;27;19918;-41
2023/05/04 12:36:03;;;;;;;;;;;21.00;74.20;;;;;;5161043;27;19911;-41
2023/05/04 12:38:29;;;;;;;;;;;21.20;77.50;;;;;;5157071;27;19919;-41
2023/05/04 12:40:57;;;;;;;;;;;21.30;76.40;;;;;;5159483;27;19911;-42
2023/05/04 12:43:23;;;;;;;;;;;21.50;73.30;;;;;;5167877;27;19911;-40
2023/05/04 12:45:49;;;;;;;;;;;21.50;67.90;;;;;;5199011;27;19927;-43
2023/05/04 12:48:14;;;;;;;;;;;21.50;67.90;;;;;;5170156;27;19993;-42
2023/05/04 12:50:42;;;;;;;;;;;21.80;73.40;;;;;;5166482;27;19911;-42
2023/05/04 12:53:08;;;;;;;;;;;22.00;74.10;;;;;;5163061;27;19925;-41
2023/05/04 12:55:33;;;;;;;;;;;22.20;74.80;;;;;;5157286;27;19997;-41
2023/05/04 12:57:59;;;;;;;;;;;22.20;68.20;;;;;;5162238;27;19963;-41
2023/05/04 13:00:24;;;;;;;;;;;22.30;67.30;;;;;;5170970;27;19963;-41
2023/05/04 13:02:50;;;;;;;;;;;22.20;62.20;;;;;;5169389;27;20234;-40
2023/05/04 13:05:17;;;;;;;;;;;22.20;66.60;;;;;;5159813;27;19911;-41
2023/05/04 13:07:42;;;;;;;;;;;22.20;69.60;;;;;;5167150;27;20308;-43
2023/05/04 13:10:08;;;;;;;;;;;22.40;68.70;;;;;;5156081;27;19958;-42
2023/05/04 13:12:34;;;;;;;;;;;22.40;65.80;;;;;;5156674;27;19911;-42
2023/05/04 13:14:59;;;;;;;;;;;22.40;63.00;;;;;;5163332;27;20347;-41
2023/05/04 13:17:26;;;;;;;;;;;22.50;63.30;;;;;;5177841;27;19994;-42
2023/05/04 13:19:51;;;;;;;;;;;22.40;64.30;;;;;;5170667;27;19919;-42
2023/05/04 13:22:17;;;;;;;;;;;22.60;63.40;;;;;;5156222;27;19934;-41
2023/05/04 13:24:42;;;;;;;;;;;22.60;62.50;;;;;;5158012;27;20002;-41
2023/05/04 13:27:08;;;;;;;;;;;22.80;60.50;;;;;;5161564;27;20364;-42
2023/05/04 13:29:33;;;;;;;;;;;23.10;66.80;;;;;;5167201;27;20041;-42
2023/05/04 13:31:59;;;;;;;;;;;23.40;61.70;;;;;;5166332;27;20013;-42
2023/05/04 13:34:24;;;;;;;;;;;23.70;63.50;;;;;;5159518;27;19918;-42
2023/05/04 13:36:50;;;;;;;;;;;24.10;62.10;;;;;;5163805;27;20441;-42
2023/05/04 13:39:20;;;;;;;;;;;24.20;56.40;;;;;;5155025;27;19915;-42
2023/05/04 13:41:46;;;;;;;;;;;24.00;58.50;;;;;;5153870;27;20380;-41
2023/05/04 13:44:11;;;;;;;;;;;23.90;56.20;;;;;;5172891;27;20031;-43
2023/05/04 13:46:37;;;;;;;;;;;24.00;57.50;;;;;;5175383;27;19989;-41
2023/05/04 13:49:03;;;;;;;;;;;24.20;61.70;;;;;;5176196;27;19910;-42
2023/05/04 13:51:28;;;;;;;;;;;24.50;60.50;;;;;;5177079;27;19911;-43
2023/05/04 13:53:54;;;;;;;;;;;24.80;59.70;;;;;;5176808;27;19907;-44
2023/05/04 13:56:19;;;;;;;;;;;25.20;57.30;;;;;;5176618;27;20416;-42
2023/05/04 13:58:45;;;;;;;;;;;25.60;56.50;;;;;;5170307;27;19923;-42
2023/05/04 14:01:12;;;;;;;;;;;26.00;56.90;;;;;;5174494;27;20373;-41
2023/05/04 14:03:38;;;;;;;;;;;26.30;56.20;;;;;;5173223;27;19911;-42
2023/05/04 14:06:03;;;;;;;;;;;26.50;54.20;;;;;;5175244;27;19910;-43
2023/05/04 14:08:29;;;;;;;;;;;26.40;51.70;;;;;;5174325;27;19968;-42
2023/05/04 14:10:54;;;;;;;;;;;26.40;55.70;;;;;;5164129;27;19912;-42
2023/05/04 14:13:20;;;;;;;;;;;26.60;51.60;;;;;;5164085;27;19917;-41
2023/05/04 14:15:47;;;;;;;;;;;26.50;52.30;;;;;;5159557;27;20515;-43
2023/05/04 14:18:12;;;;;;;;;;;26.20;49.30;;;;;;5154248;27;19975;-42
2023/05/04 14:20:37;;;;;;;;;;;25.80;48.40;;;;;;5155006;27;20361;-41